Time;durP1;ratioP1;P1;durP2;ratioP2;P2;SDS_P1;SDS_P2;PMS_P1;PMS_P2;Temp;Humidity;BMP_temperature;BMP_pressure;BME280_temperature;BME280_humidity;BME280_pressure;Samples;Min_cycle;Max_cycle;Signal;HPM_P1;HPM_P2
2022/01/18 00:01:50;;;;;;;137.88;75.15;;;;;;;;;;5097926;28;20898;-85
2022/01/18 00:04:17;;;;;;;134.70;71.50;;;;;;;;;;5098751;28;20410;-85
2022/01/18 00:06:48;;;;;;;136.07;70.83;;;;;;;;;;5104969;28;20409;-85
2022/01/18 00:09:19;;;;;;;127.60;69.75;;;;;;;;;;5103791;28;20406;-85
2022/01/18 00:11:55;;;;;;;122.93;68.43;;;;;;;;;;5101322;28;20882;-85
2022/01/18 00:14:27;;;;;;;119.13;65.90;;;;;;;;;;5106643;28;20987;-84
2022/01/18 00:17:04;;;;;;;118.15;66.20;;;;;;;;;;5108067;28;20399;-85
2022/01/18 00:19:33;;;;;;;109.40;63.90;;;;;;;;;;5105310;28;20421;-86
2022/01/18 00:22:11;;;;;;;112.22;64.85;;;;;;;;;;5108140;28;20406;-85
2022/01/18 00:24:40;;;;;;;107.68;62.80;;;;;;;;;;5107198;28;20485;-86
2022/01/18 00:27:12;;;;;;;104.03;62.22;;;;;;;;;;5108302;28;20395;-85
2022/01/18 00:29:46;;;;;;;104.07;60.85;;;;;;;;;;5108420;28;20423;-86
2022/01/18 00:32:20;;;;;;;100.95;59.83;;;;;;;;;;5108320;28;20807;-85
2022/01/18 00:34:52;;;;;;;98.00;59.50;;;;;;;;;;5106169;28;21225;-85
2022/01/18 00:37:34;;;;;;;97.00;58.00;;;;;;;;;;5107014;28;20930;-85
2022/01/18 00:40:01;;;;;;;95.10;57.78;;;;;;;;;;5108676;28;20407;-85
2022/01/18 00:42:30;;;;;;;91.60;57.33;;;;;;;;;;5108848;28;20471;-84
2022/01/18 00:44:57;;;;;;;91.00;57.30;;;;;;;;;;5109045;28;20398;-85
2022/01/18 00:47:23;;;;;;;91.95;56.22;;;;;;;;;;5108021;28;20406;-86
2022/01/18 00:49:58;;;;;;;89.47;56.47;;;;;;;;;;5108389;28;20403;-85
2022/01/18 00:52:26;;;;;;;91.13;56.60;;;;;;;;;;5107694;28;20774;-85
2022/01/18 00:54:54;;;;;;;88.43;55.78;;;;;;;;;;5108569;28;20409;-85
2022/01/18 00:57:21;;;;;;;87.30;55.50;;;;;;;;;;5106700;28;20463;-85
2022/01/18 00:59:49;;;;;;;84.77;54.97;;;;;;;;;;5106918;28;20676;-85
2022/01/18 01:02:17;;;;;;;86.23;53.93;;;;;;;;;;5108470;28;20449;-86
2022/01/18 01:04:48;;;;;;;92.57;58.03;;;;;;;;;;5107877;28;20762;-85
2022/01/18 01:07:16;;;;;;;96.03;59.60;;;;;;;;;;5107535;28;20922;-85
2022/01/18 01:09:43;;;;;;;85.55;54.08;;;;;;;;;;5108347;28;20473;-85
2022/01/18 01:12:12;;;;;;;90.68;55.00;;;;;;;;;;5107747;28;20796;-85
2022/01/18 01:14:39;;;;;;;89.97;54.88;;;;;;;;;;5108390;28;20481;-85
2022/01/18 01:17:27;;;;;;;86.40;54.33;;;;;;;;;;5107579;28;20398;-85
2022/01/18 01:34:08;;;;;;;86.78;53.67;;;;;;;;;;5108076;28;20486;-85
2022/01/18 01:36:47;;;;;;;88.68;55.60;;;;;;;;;;5114692;28;20409;-85
2022/01/18 01:42:16;;;;;;;91.15;55.95;;;;;;;;;;5117388;28;20418;-85
2022/01/18 01:44:45;;;;;;;89.70;55.03;;;;;;;;;;5122046;28;20466;-85
2022/01/18 01:47:17;;;;;;;92.50;55.77;;;;;;;;;;5122841;28;20471;-85
2022/01/18 01:49:47;;;;;;;88.80;54.30;;;;;;;;;;5110406;28;20403;-85
2022/01/18 01:52:15;;;;;;;88.65;54.42;;;;;;;;;;5121177;28;20403;-86
2022/01/18 01:54:42;;;;;;;90.93;55.55;;;;;;;;;;5120981;28;20428;-85
2022/01/18 01:57:10;;;;;;;88.45;55.35;;;;;;;;;;5109739;28;20402;-85
2022/01/18 01:59:37;;;;;;;89.07;56.22;;;;;;;;;;5107088;28;20394;-85
2022/01/18 02:02:05;;;;;;;91.10;56.00;;;;;;;;;;5104949;28;20491;-86
2022/01/18 02:04:32;;;;;;;88.13;56.17;;;;;;;;;;5107284;28;20459;-85
2022/01/18 02:07:00;;;;;;;90.28;55.65;;;;;;;;;;5106556;28;20407;-85
2022/01/18 02:09:27;;;;;;;89.07;55.08;;;;;;;;;;5106967;28;20399;-85
2022/01/18 02:11:57;;;;;;;91.05;56.05;;;;;;;;;;5105801;28;20451;-85
2022/01/18 02:14:26;;;;;;;89.47;54.60;;;;;;;;;;5107361;28;20398;-85
2022/01/18 02:22:23;;;;;;;92.85;55.35;;;;;;;;;;5105108;28;20433;-85
2022/01/18 02:24:52;;;;;;;88.07;55.35;;;;;;;;;;5106908;28;20634;-85
2022/01/18 02:27:19;;;;;;;90.13;55.53;;;;;;;;;;5104288;28;20414;-85
2022/01/18 02:29:45;;;;;;;91.65;55.83;;;;;;;;;;5106700;28;20758;-85
2022/01/18 02:32:14;;;;;;;94.07;57.45;;;;;;;;;;5106965;28;20463;-85
2022/01/18 02:34:41;;;;;;;89.75;55.22;;;;;;;;;;5106212;28;20402;-85
2022/01/18 02:37:10;;;;;;;90.85;54.85;;;;;;;;;;5104550;28;20415;-85
2022/01/18 02:39:39;;;;;;;87.17;53.07;;;;;;;;;;5102723;28;20488;-87
2022/01/18 02:42:08;;;;;;;83.22;52.05;;;;;;;;;;5105406;28;20425;-85
2022/01/18 02:44:37;;;;;;;84.50;51.72;;;;;;;;;;5104560;28;20398;-86
2022/01/18 02:47:05;;;;;;;74.50;46.00;;;;;;;;;;5104575;28;20398;-85
2022/01/18 02:49:33;;;;;;;75.27;46.83;;;;;;;;;;5106324;28;20391;-85
2022/01/18 02:52:00;;;;;;;67.85;43.83;;;;;;;;;;5105708;28;20411;-86
2022/01/18 02:54:27;;;;;;;70.85;44.90;;;;;;;;;;5106426;28;20399;-85
2022/01/18 02:57:00;;;;;;;72.53;46.47;;;;;;;;;;5105724;28;20391;-86
2022/01/18 02:59:33;;;;;;;68.95;45.20;;;;;;;;;;5105979;28;20395;-85
2022/01/18 03:04:48;;;;;;;66.88;42.60;;;;;;;;;;5107163;28;20750;-86
2022/01/18 03:07:16;;;;;;;68.18;44.40;;;;;;;;;;5106208;28;20879;-86
2022/01/18 03:09:43;;;;;;;68.95;44.60;;;;;;;;;;5106412;28;20471;-86
2022/01/18 03:12:11;;;;;;;68.27;42.90;;;;;;;;;;5105557;28;20394;-85
2022/01/18 03:14:40;;;;;;;68.40;43.00;;;;;;;;;;5106409;28;20398;-85
2022/01/18 03:17:07;;;;;;;65.78;43.13;;;;;;;;;;5105319;28;20407;-85
2022/01/18 03:19:34;;;;;;;66.40;42.25;;;;;;;;;;5105617;28;21324;-85
2022/01/18 03:22:02;;;;;;;64.90;41.20;;;;;;;;;;5105673;28;20440;-85
2022/01/18 03:24:45;;;;;;;62.78;40.30;;;;;;;;;;5105963;28;20464;-85
2022/01/18 03:29:59;;;;;;;61.92;39.35;;;;;;;;;;5103563;28;20385;-86
2022/01/18 03:32:25;;;;;;;61.85;38.92;;;;;;;;;;5106376;28;20448;-85
2022/01/18 03:34:53;;;;;;;60.17;38.75;;;;;;;;;;5106263;28;20394;-85
2022/01/18 03:37:19;;;;;;;55.63;36.17;;;;;;;;;;5105950;28;20758;-85
2022/01/18 03:39:46;;;;;;;54.20;35.53;;;;;;;;;;5105859;28;20934;-85
2022/01/18 03:45:04;;;;;;;53.30;34.78;;;;;;;;;;5103219;28;20409;-86
2022/01/18 03:47:31;;;;;;;53.45;33.75;;;;;;;;;;5106549;28;20399;-85
2022/01/18 03:49:58;;;;;;;51.35;33.60;;;;;;;;;;5106082;28;20474;-85
2022/01/18 03:52:25;;;;;;;50.80;32.30;;;;;;;;;;5106495;28;20403;-85
2022/01/18 03:54:53;;;;;;;52.83;33.20;;;;;;;;;;5106341;28;20395;-85
2022/01/18 03:57:22;;;;;;;49.42;33.30;;;;;;;;;;5105530;28;21235;-85
2022/01/18 03:59:50;;;;;;;48.37;32.60;;;;;;;;;;5102072;28;20943;-85
2022/01/18 04:02:18;;;;;;;47.37;31.40;;;;;;;;;;5105322;28;20425;-85
2022/01/18 04:04:45;;;;;;;51.88;33.60;;;;;;;;;;5106272;28;20410;-85
2022/01/18 04:07:12;;;;;;;55.70;36.17;;;;;;;;;;5105841;28;20789;-86
2022/01/18 04:09:41;;;;;;;59.97;36.90;;;;;;;;;;5106758;28;20413;-86
2022/01/18 04:12:09;;;;;;;58.28;35.92;;;;;;;;;;5104544;28;20395;-85
2022/01/18 04:14:37;;;;;;;55.47;35.47;;;;;;;;;;5105881;28;20955;-85
2022/01/18 04:17:11;;;;;;;55.22;35.13;;;;;;;;;;5106031;28;20936;-85
2022/01/18 04:28:00;;;;;;;50.63;31.92;;;;;;;;;;5102472;28;20443;-85
2022/01/18 04:30:29;;;;;;;48.45;30.67;;;;;;;;;;5109652;28;20391;-87
2022/01/18 04:32:56;;;;;;;47.72;31.42;;;;;;;;;;5114909;28;20947;-85
2022/01/18 04:35:23;;;;;;;48.63;30.77;;;;;;;;;;5125749;28;20379;-86
2022/01/18 04:37:50;;;;;;;45.97;29.58;;;;;;;;;;5114959;28;20397;-85
2022/01/18 04:40:19;;;;;;;45.47;29.67;;;;;;;;;;5109127;28;20395;-86
2022/01/18 04:43:12;;;;;;;42.35;27.77;;;;;;;;;;5109454;28;20418;-86
2022/01/18 04:48:27;;;;;;;38.15;24.88;;;;;;;;;;5106614;28;20393;-85
2022/01/18 04:50:55;;;;;;;38.65;25.10;;;;;;;;;;5109897;28;20399;-86
2022/01/18 04:53:22;;;;;;;39.85;26.55;;;;;;;;;;5109032;28;20390;-86
2022/01/18 04:55:54;;;;;;;38.28;24.92;;;;;;;;;;5109534;28;20398;-85
2022/01/18 04:58:22;;;;;;;39.75;25.08;;;;;;;;;;5105853;28;20434;-85
2022/01/18 05:00:53;;;;;;;38.55;26.42;;;;;;;;;;5100888;28;20423;-85
2022/01/18 05:03:20;;;;;;;42.30;25.65;;;;;;;;;;5102160;28;20422;-85
2022/01/18 05:05:48;;;;;;;35.70;23.07;;;;;;;;;;5105509;28;20418;-84
2022/01/18 05:08:17;;;;;;;32.53;20.92;;;;;;;;;;5105219;28;20486;-85
2022/01/18 05:10:50;;;;;;;33.25;22.13;;;;;;;;;;5108547;28;20399;-85
2022/01/18 05:13:29;;;;;;;34.27;22.77;;;;;;;;;;5107652;28;20402;-86
2022/01/18 05:16:20;;;;;;;34.78;22.98;;;;;;;;;;5107248;28;20398;-85
2022/01/18 05:19:11;;;;;;;36.97;23.42;;;;;;;;;;5107967;28;20390;-85
2022/01/18 05:24:19;;;;;;;35.70;23.42;;;;;;;;;;5105176;28;20402;-86
2022/01/18 05:26:46;;;;;;;37.85;24.13;;;;;;;;;;5107937;28;20394;-86
2022/01/18 05:29:13;;;;;;;35.17;23.52;;;;;;;;;;5107145;28;20943;-85
2022/01/18 05:31:43;;;;;;;35.15;22.83;;;;;;;;;;5107712;27;20893;-85
2022/01/18 05:34:10;;;;;;;36.33;22.77;;;;;;;;;;5107313;28;20410;-85
2022/01/18 05:36:37;;;;;;;37.33;23.15;;;;;;;;;;5108168;28;20420;-85
2022/01/18 05:39:04;;;;;;;37.60;23.80;;;;;;;;;;5108089;28;20479;-85
2022/01/18 05:41:31;;;;;;;35.83;23.35;;;;;;;;;;5107464;28;20460;-85
2022/01/18 05:43:58;;;;;;;33.35;21.50;;;;;;;;;;5107041;28;20386;-85
2022/01/18 05:46:25;;;;;;;30.60;20.42;;;;;;;;;;5106862;28;20456;-85
2022/01/18 05:48:53;;;;;;;35.72;20.85;;;;;;;;;;5107530;28;20399;-85
2022/01/18 05:51:20;;;;;;;33.22;20.83;;;;;;;;;;5104516;28;20467;-86
2022/01/18 05:53:47;;;;;;;32.30;19.47;;;;;;;;;;5104384;28;20512;-85
2022/01/18 05:56:14;;;;;;;30.93;19.73;;;;;;;;;;5105691;28;20451;-86
2022/01/18 05:58:44;;;;;;;32.30;19.70;;;;;;;;;;5107013;28;20434;-86
2022/01/18 06:01:13;;;;;;;28.95;18.95;;;;;;;;;;5106287;28;20409;-86
2022/01/18 06:03:53;;;;;;;26.80;17.67;;;;;;;;;;5105975;28;20445;-85
2022/01/18 06:09:10;;;;;;;27.77;18.20;;;;;;;;;;5090163;28;20394;-85
2022/01/18 06:11:38;;;;;;;24.27;15.70;;;;;;;;;;5106688;28;20452;-87
2022/01/18 06:14:05;;;;;;;27.25;15.70;;;;;;;;;;5102555;28;20471;-86
2022/01/18 06:16:33;;;;;;;19.27;13.40;;;;;;;;;;5102493;28;20424;-86
2022/01/18 06:19:00;;;;;;;19.25;13.13;;;;;;;;;;5104205;28;20471;-85
2022/01/18 06:21:29;;;;;;;18.13;12.50;;;;;;;;;;5107428;28;20739;-86
2022/01/18 06:23:56;;;;;;;19.38;12.93;;;;;;;;;;5105683;28;20435;-88
2022/01/18 06:26:23;;;;;;;18.70;12.82;;;;;;;;;;5107418;27;20402;-87
2022/01/18 06:28:50;;;;;;;22.00;13.63;;;;;;;;;;5108267;28;20406;-87
2022/01/18 06:31:17;;;;;;;20.75;13.73;;;;;;;;;;5107585;28;20406;-88
2022/01/18 06:33:44;;;;;;;18.85;12.10;;;;;;;;;;5109517;28;20383;-89
2022/01/18 06:36:11;;;;;;;19.33;13.38;;;;;;;;;;5108872;28;20432;-89
2022/01/18 06:38:40;;;;;;;21.13;13.95;;;;;;;;;;5109232;28;20527;-93
2022/01/18 06:41:06;;;;;;;21.48;13.73;;;;;;;;;;5104945;28;20437;-90
2022/01/18 06:43:33;;;;;;;20.92;13.82;;;;;;;;;;5107027;28;20467;-90
2022/01/18 06:46:01;;;;;;;20.23;13.88;;;;;;;;;;5108949;28;20402;-90
2022/01/18 06:48:28;;;;;;;19.95;14.48;;;;;;;;;;5105097;28;20401;-90
2022/01/18 06:50:56;;;;;;;24.35;14.82;;;;;;;;;;5100979;28;20489;-90
2022/01/18 06:53:22;;;;;;;23.70;15.73;;;;;;;;;;5105740;28;20398;-90
2022/01/18 06:55:54;;;;;;;23.97;14.93;;;;;;;;;;5105728;28;20398;-91
2022/01/18 06:58:21;;;;;;;22.47;15.03;;;;;;;;;;5103936;28;20476;-91
2022/01/18 07:00:48;;;;;;;23.05;15.00;;;;;;;;;;5103165;28;20418;-90
2022/01/18 07:03:17;;;;;;;23.55;15.48;;;;;;;;;;5104271;28;20419;-90
2022/01/18 07:05:44;;;;;;;22.58;15.77;;;;;;;;;;5108923;28;20402;-91
2022/01/18 07:08:11;;;;;;;25.80;15.60;;;;;;;;;;5107664;28;20394;-91
2022/01/18 07:10:38;;;;;;;22.40;15.20;;;;;;;;;;5107582;28;20436;-90
2022/01/18 07:13:08;;;;;;;24.88;16.33;;;;;;;;;;5109128;28;20403;-91
2022/01/18 07:15:38;;;;;;;25.27;16.50;;;;;;;;;;5102670;28;20410;-90
2022/01/18 07:18:06;;;;;;;23.02;16.48;;;;;;;;;;5103889;28;20727;-90
2022/01/18 07:20:35;;;;;;;25.00;16.60;;;;;;;;;;5108117;28;20406;-90
2022/01/18 07:23:03;;;;;;;23.73;16.77;;;;;;;;;;5102972;28;20406;-91
2022/01/18 07:25:30;;;;;;;26.33;16.70;;;;;;;;;;5102053;28;20731;-90
2022/01/18 07:27:58;;;;;;;25.10;17.37;;;;;;;;;;5108501;28;20406;-91
2022/01/18 07:30:26;;;;;;;27.48;17.88;;;;;;;;;;5103954;28;20415;-90
2022/01/18 07:32:53;;;;;;;23.77;16.90;;;;;;;;;;5104058;28;20421;-90
2022/01/18 07:35:20;;;;;;;26.80;18.20;;;;;;;;;;5105449;28;20426;-90
2022/01/18 07:37:47;;;;;;;24.67;17.33;;;;;;;;;;5107871;28;20513;-90
2022/01/18 07:40:14;;;;;;;28.75;17.83;;;;;;;;;;5112008;28;20404;-91
2022/01/18 07:42:41;;;;;;;25.30;17.95;;;;;;;;;;5118804;28;20944;-91
2022/01/18 07:45:10;;;;;;;24.33;17.10;;;;;;;;;;5123465;28;20434;-90
2022/01/18 07:47:38;;;;;;;27.70;17.63;;;;;;;;;;5127381;28;20482;-90
2022/01/18 07:50:06;;;;;;;26.50;18.90;;;;;;;;;;5127676;27;20382;-90
2022/01/18 07:52:35;;;;;;;26.15;18.77;;;;;;;;;;5115960;28;20455;-90
2022/01/18 07:55:03;;;;;;;27.17;18.95;;;;;;;;;;5111670;28;20409;-90
2022/01/18 07:57:30;;;;;;;27.27;18.73;;;;;;;;;;5118358;28;20420;-90
2022/01/18 07:59:57;;;;;;;26.65;18.08;;;;;;;;;;5126194;28;20390;-90
2022/01/18 08:02:24;;;;;;;28.80;19.10;;;;;;;;;;5123358;28;20596;-90
2022/01/18 08:04:52;;;;;;;27.45;19.40;;;;;;;;;;5121779;28;20391;-89
2022/01/18 08:07:19;;;;;;;27.67;19.10;;;;;;;;;;5120366;28;20383;-89
2022/01/18 08:09:46;;;;;;;28.08;19.00;;;;;;;;;;5127531;28;20386;-89
2022/01/18 08:12:14;;;;;;;30.17;20.10;;;;;;;;;;5129150;28;20399;-88
2022/01/18 08:14:45;;;;;;;28.87;19.87;;;;;;;;;;5126539;28;20392;-89
2022/01/18 08:17:12;;;;;;;29.13;20.65;;;;;;;;;;5128213;28;20428;-90
2022/01/18 08:19:39;;;;;;;28.92;21.08;;;;;;;;;;5096001;28;20390;-90
2022/01/18 08:22:09;;;;;;;29.85;20.80;;;;;;;;;;5106568;28;20403;-90
2022/01/18 08:24:37;;;;;;;31.73;21.25;;;;;;;;;;5108746;28;20452;-91
2022/01/18 08:27:05;;;;;;;29.02;19.92;;;;;;;;;;5109452;28;20394;-91
2022/01/18 08:29:32;;;;;;;30.73;20.60;;;;;;;;;;5113098;28;20921;-90
2022/01/18 08:32:01;;;;;;;27.70;18.80;;;;;;;;;;5111542;28;20805;-90
2022/01/18 08:34:28;;;;;;;26.58;18.30;;;;;;;;;;5105596;28;20962;-90
2022/01/18 08:36:55;;;;;;;28.55;19.88;;;;;;;;;;5111794;28;20429;-90
2022/01/18 08:39:24;;;;;;;27.83;19.75;;;;;;;;;;5107934;28;20489;-90
2022/01/18 08:41:51;;;;;;;29.00;20.00;;;;;;;;;;5110215;28;20387;-90
2022/01/18 08:44:18;;;;;;;28.47;20.07;;;;;;;;;;5103147;28;20520;-90
2022/01/18 08:46:45;;;;;;;27.83;19.95;;;;;;;;;;5104242;28;20894;-90
2022/01/18 08:49:12;;;;;;;28.83;19.98;;;;;;;;;;5104232;28;20411;-89
2022/01/18 08:51:39;;;;;;;28.30;19.33;;;;;;;;;;5105007;28;20398;-89
2022/01/18 08:54:07;;;;;;;28.23;19.20;;;;;;;;;;5102690;28;20414;-90
2022/01/18 08:56:35;;;;;;;24.20;18.13;;;;;;;;;;5107755;28;20761;-89
2022/01/18 08:59:02;;;;;;;26.33;17.92;;;;;;;;;;5103096;28;20735;-90
2022/01/18 09:01:29;;;;;;;26.08;18.33;;;;;;;;;;5102855;28;20417;-90
2022/01/18 09:03:56;;;;;;;26.63;18.30;;;;;;;;;;5103044;28;20414;-89
2022/01/18 09:06:24;;;;;;;28.20;18.98;;;;;;;;;;5104516;28;20425;-90
2022/01/18 09:08:56;;;;;;;28.05;19.40;;;;;;;;;;5110637;28;20406;-89
2022/01/18 09:11:26;;;;;;;28.85;18.83;;;;;;;;;;5108721;28;20750;-89
2022/01/18 09:13:54;;;;;;;27.25;18.23;;;;;;;;;;5107264;28;20719;-89
2022/01/18 09:16:22;;;;;;;25.05;18.33;;;;;;;;;;5108360;28;20471;-89
2022/01/18 09:18:50;;;;;;;24.42;17.48;;;;;;;;;;5106852;28;20398;-89
2022/01/18 09:21:18;;;;;;;25.38;19.25;;;;;;;;;;5107728;28;20402;-89
2022/01/18 09:23:45;;;;;;;27.53;18.93;;;;;;;;;;5108960;28;20422;-89
2022/01/18 09:26:13;;;;;;;24.65;18.33;;;;;;;;;;5106400;28;20468;-88
2022/01/18 09:28:41;;;;;;;26.10;18.48;;;;;;;;;;5107931;28;20432;-88
2022/01/18 09:31:10;;;;;;;25.15;18.02;;;;;;;;;;5108470;28;20409;-89
2022/01/18 09:33:37;;;;;;;23.52;17.08;;;;;;;;;;5106441;28;20410;-89
2022/01/18 09:36:04;;;;;;;22.98;17.40;;;;;;;;;;5105367;28;20410;-89
2022/01/18 09:38:31;;;;;;;24.30;17.33;;;;;;;;;;5110088;27;20414;-89
2022/01/18 09:40:59;;;;;;;22.48;16.92;;;;;;;;;;5106813;28;20436;-88
2022/01/18 09:43:28;;;;;;;26.73;18.73;;;;;;;;;;5104702;28;20429;-89
2022/01/18 09:45:57;;;;;;;24.58;19.52;;;;;;;;;;5103913;28;20424;-89
2022/01/18 09:48:26;;;;;;;27.40;20.23;;;;;;;;;;5106644;28;20907;-89
2022/01/18 09:50:53;;;;;;;27.25;20.00;;;;;;;;;;5104044;28;20394;-89
2022/01/18 09:53:20;;;;;;;31.83;20.50;;;;;;;;;;5104990;28;20871;-90
2022/01/18 09:55:49;;;;;;;30.05;20.73;;;;;;;;;;5105106;28;20430;-90
2022/01/18 09:58:16;;;;;;;31.55;22.48;;;;;;;;;;5104199;28;20394;-90
2022/01/18 10:00:43;;;;;;;36.28;24.77;;;;;;;;;;5097275;28;20467;-89
2022/01/18 10:03:25;;;;;;;35.13;24.23;;;;;;;;;;5101892;28;20816;-89
2022/01/18 10:05:54;;;;;;;33.72;24.63;;;;;;;;;;5101428;28;20889;-90
2022/01/18 10:08:21;;;;;;;31.05;21.10;;;;;;;;;;5103405;28;20391;-89
2022/01/18 10:10:49;;;;;;;28.25;17.50;;;;;;;;;;5106497;28;20394;-90
2022/01/18 10:13:19;;;;;;;22.52;17.02;;;;;;;;;;5101900;28;20394;-90
2022/01/18 10:16:05;;;;;;;21.42;16.10;;;;;;;;;;5105104;28;20960;-90
2022/01/18 10:18:44;;;;;;;22.52;15.05;;;;;;;;;;5104629;28;20796;-89
2022/01/18 10:21:14;;;;;;;21.50;15.77;;;;;;;;;;5101297;28;20885;-90
2022/01/18 10:23:48;;;;;;;21.27;15.98;;;;;;;;;;5100608;28;20564;-89
2022/01/18 10:26:18;;;;;;;21.98;16.17;;;;;;;;;;5104404;28;20493;-89
2022/01/18 10:28:45;;;;;;;21.83;16.50;;;;;;;;;;5104401;28;20390;-89
2022/01/18 10:31:27;;;;;;;19.60;14.07;;;;;;;;;;5105039;28;20403;-89
2022/01/18 10:34:12;;;;;;;20.38;14.05;;;;;;;;;;5101482;28;20490;-88
2022/01/18 10:36:53;;;;;;;21.25;14.20;;;;;;;;;;5104831;28;20429;-89
2022/01/18 10:39:26;;;;;;;20.73;15.20;;;;;;;;;;5103513;28;20489;-90
2022/01/18 10:41:53;;;;;;;21.13;15.15;;;;;;;;;;5102402;27;20400;-89
2022/01/18 10:44:20;;;;;;;22.35;15.50;;;;;;;;;;5101605;28;20431;-88
2022/01/18 10:46:49;;;;;;;22.92;16.40;;;;;;;;;;5103001;28;20395;-89
2022/01/18 10:49:28;;;;;;;22.50;15.48;;;;;;;;;;5103604;28;20394;-88
2022/01/18 10:52:04;;;;;;;22.30;15.45;;;;;;;;;;5103168;28;20394;-89
2022/01/18 10:54:40;;;;;;;24.67;15.52;;;;;;;;;;5110043;28;20396;-89
2022/01/18 10:57:11;;;;;;;23.30;15.63;;;;;;;;;;5113025;28;20435;-89
2022/01/18 10:59:38;;;;;;;25.25;15.70;;;;;;;;;;5124657;28;20367;-89
2022/01/18 11:02:13;;;;;;;23.73;15.73;;;;;;;;;;5129016;27;20387;-89
2022/01/18 11:04:42;;;;;;;22.77;15.73;;;;;;;;;;5107519;28;20438;-88
2022/01/18 11:07:12;;;;;;;26.13;16.20;;;;;;;;;;5104716;28;20401;-89
2022/01/18 11:09:40;;;;;;;23.58;15.30;;;;;;;;;;5105279;28;20406;-89
2022/01/18 11:12:08;;;;;;;25.15;16.02;;;;;;;;;;5103069;28;20383;-89
2022/01/18 11:14:37;;;;;;;22.05;14.82;;;;;;;;;;5105952;28;20412;-89
2022/01/18 11:17:06;;;;;;;22.85;15.50;;;;;;;;;;5103676;28;20398;-89
2022/01/18 11:19:36;;;;;;;24.90;15.48;;;;;;;;;;5105778;28;20504;-89
2022/01/18 11:22:08;;;;;;;22.83;15.20;;;;;;;;;;5101667;28;20449;-89
2022/01/18 11:24:39;;;;;;;22.33;15.13;;;;;;;;;;5105729;28;20505;-89
2022/01/18 11:27:11;;;;;;;25.33;16.35;;;;;;;;;;5106284;28;20400;-89
2022/01/18 11:29:39;;;;;;;21.88;14.23;;;;;;;;;;5104385;28;20486;-89
2022/01/18 11:32:07;;;;;;;22.98;15.10;;;;;;;;;;5106499;28;20459;-88
2022/01/18 11:34:56;;;;;;;22.02;15.50;;;;;;;;;;5105732;28;20445;-88
2022/01/18 11:37:39;;;;;;;23.33;16.40;;;;;;;;;;5100017;28;20423;-89
2022/01/18 11:40:11;;;;;;;26.33;17.73;;;;;;;;;;5104177;28;20869;-87
2022/01/18 11:42:46;;;;;;;27.60;18.52;;;;;;;;;;5106406;28;20441;-89
2022/01/18 11:45:34;;;;;;;26.67;18.45;;;;;;;;;;5103446;28;20445;-89
2022/01/18 11:48:06;;;;;;;24.98;19.55;;;;;;;;;;5104993;28;20983;-89
2022/01/18 11:50:34;;;;;;;23.58;17.70;;;;;;;;;;5103679;28;20457;-89
2022/01/18 11:53:26;;;;;;;24.75;17.98;;;;;;;;;;5104655;28;20444;-89
2022/01/18 11:55:58;;;;;;;25.50;19.30;;;;;;;;;;5102424;28;20919;-89
2022/01/18 11:58:26;;;;;;;25.42;18.85;;;;;;;;;;5099891;28;20516;-89
2022/01/18 12:00:56;;;;;;;24.25;18.10;;;;;;;;;;5103190;28;20606;-89
2022/01/18 12:03:26;;;;;;;22.63;16.52;;;;;;;;;;5102263;28;20451;-89
2022/01/18 12:05:55;;;;;;;22.48;15.90;;;;;;;;;;5101559;28;20403;-89
2022/01/18 12:08:33;;;;;;;22.73;15.07;;;;;;;;;;5104016;28;20437;-89
2022/01/18 12:11:02;;;;;;;23.17;15.90;;;;;;;;;;5100583;28;20939;-76
2022/01/18 12:13:44;;;;;;;22.85;16.42;;;;;;;;;;5102699;28;20468;-89
2022/01/18 12:16:25;;;;;;;23.48;14.98;;;;;;;;;;5097429;28;20673;-88
2022/01/18 12:18:56;;;;;;;20.77;14.25;;;;;;;;;;5101715;28;20473;-88
2022/01/18 12:21:26;;;;;;;17.35;12.98;;;;;;;;;;5098019;28;20451;-88
2022/01/18 12:23:54;;;;;;;15.75;11.95;;;;;;;;;;5096997;28;20469;-89
2022/01/18 12:26:41;;;;;;;14.32;11.57;;;;;;;;;;5103698;28;20432;-88
2022/01/18 12:29:34;;;;;;;19.88;13.00;;;;;;;;;;5104266;28;20466;-89
2022/01/18 12:35:02;;;;;;;17.17;11.38;;;;;;;;;;5097572;27;20407;-87
2022/01/18 12:37:47;;;;;;;14.70;10.98;;;;;;;;;;5101573;28;20465;-88
2022/01/18 12:40:27;;;;;;;15.32;10.90;;;;;;;;;;5100005;27;20490;-86
2022/01/18 12:45:54;;;;;;;12.30;9.00;;;;;;;;;;5096842;27;20841;-89
2022/01/18 12:48:21;;;;;;;11.85;8.10;;;;;;;;;;5099696;28;20448;-88
2022/01/18 12:50:52;;;;;;;9.82;8.13;;;;;;;;;;5102612;27;20402;-88
2022/01/18 12:53:22;;;;;;;11.02;7.40;;;;;;;;;;5106900;28;20415;-88
2022/01/18 12:55:54;;;;;;;8.75;7.38;;;;;;;;;;5119648;27;20407;-88
2022/01/18 12:58:25;;;;;;;8.15;5.57;;;;;;;;;;5115122;27;20752;-89
2022/01/18 13:00:54;;;;;;;7.43;5.30;;;;;;;;;;5121899;28;20453;-87
2022/01/18 13:03:25;;;;;;;6.85;4.90;;;;;;;;;;5119496;28;20514;-89
2022/01/18 13:05:55;;;;;;;6.47;4.78;;;;;;;;;;5101159;28;20939;-89
2022/01/18 13:08:23;;;;;;;11.25;7.47;;;;;;;;;;5106794;28;20444;-89
2022/01/18 13:10:52;;;;;;;6.57;4.33;;;;;;;;;;5108412;28;20478;-89
2022/01/18 13:13:22;;;;;;;7.90;4.97;;;;;;;;;;5105912;28;20754;-89
2022/01/18 13:22:57;;;;;;;6.22;4.32;;;;;;;;;;5100821;28;20406;-89
2022/01/18 13:25:00;;;;;;;7.88;5.15;;;;;;;;;;5100578;28;20413;-89
2022/01/18 13:27:36;;;;;;;7.75;5.50;;;;;;;;;;5099558;28;20396;-88
2022/01/18 13:30:15;;;;;;;7.40;5.43;;;;;;;;;;5099803;28;20403;-89
2022/01/18 13:32:44;;;;;;;7.65;5.70;;;;;;;;;;5103062;28;20402;-86
2022/01/18 13:35:12;;;;;;;8.47;5.77;;;;;;;;;;5106815;28;20470;-89
2022/01/18 13:37:41;;;;;;;7.10;5.55;;;;;;;;;;5108961;28;20459;-89
2022/01/18 13:40:11;;;;;;;8.20;5.72;;;;;;;;;;5103562;28;20466;-88
2022/01/18 13:42:41;;;;;;;8.38;6.00;;;;;;;;;;5105563;28;20970;-88
2022/01/18 13:45:16;;;;;;;10.05;7.90;;;;;;;;;;5105876;28;20472;-88
2022/01/18 13:47:47;;;;;;;7.73;6.40;;;;;;;;;;5106837;28;20468;-88
2022/01/18 13:50:39;;;;;;;8.63;6.72;;;;;;;;;;5104974;28;20404;-88
2022/01/18 13:53:09;;;;;;;9.52;6.97;;;;;;;;;;5105918;28;20440;-88
2022/01/18 13:55:38;;;;;;;8.87;7.40;;;;;;;;;;5107144;28;20486;-88
2022/01/18 13:58:06;;;;;;;10.83;7.03;;;;;;;;;;5102557;27;20398;-88
2022/01/18 14:00:33;;;;;;;9.93;7.88;;;;;;;;;;5103243;28;20431;-87
2022/01/18 14:03:02;;;;;;;10.27;8.02;;;;;;;;;;5104062;28;20390;-87
2022/01/18 14:05:29;;;;;;;9.63;7.20;;;;;;;;;;5104171;28;20429;-88
2022/01/18 14:08:05;;;;;;;10.65;7.50;;;;;;;;;;5106269;28;20456;-87
2022/01/18 14:10:32;;;;;;;10.88;7.38;;;;;;;;;;5103700;28;20408;-88
2022/01/18 14:12:59;;;;;;;11.38;7.70;;;;;;;;;;5103513;28;20396;-88
2022/01/18 14:15:40;;;;;;;12.02;7.68;;;;;;;;;;5105492;28;20394;-88
2022/01/18 14:18:11;;;;;;;10.52;8.15;;;;;;;;;;5105486;28;20643;-87
2022/01/18 14:20:39;;;;;;;10.82;8.45;;;;;;;;;;5105083;28;20895;-87
2022/01/18 14:23:18;;;;;;;11.88;8.90;;;;;;;;;;5104752;28;20405;-87
2022/01/18 14:25:48;;;;;;;10.27;8.40;;;;;;;;;;5102518;28;20477;-87
2022/01/18 14:28:17;;;;;;;11.75;8.68;;;;;;;;;;5102821;28;20800;-88
2022/01/18 14:30:47;;;;;;;9.68;8.40;;;;;;;;;;5099472;28;20437;-88
2022/01/18 14:33:16;;;;;;;11.27;8.40;;;;;;;;;;5097318;28;20411;-87
2022/01/18 14:35:45;;;;;;;11.43;8.67;;;;;;;;;;5095071;28;20968;-88
2022/01/18 14:38:13;;;;;;;12.30;8.88;;;;;;;;;;5096391;28;20410;-89
2022/01/18 14:40:42;;;;;;;12.40;8.90;;;;;;;;;;5095820;28;20399;-88
2022/01/18 14:43:13;;;;;;;10.88;8.32;;;;;;;;;;5100607;28;20409;-87
2022/01/18 14:45:58;;;;;;;11.55;9.15;;;;;;;;;;5094534;28;20418;-88
2022/01/18 14:48:28;;;;;;;13.18;9.65;;;;;;;;;;5097421;28;20762;-87
2022/01/18 14:50:55;;;;;;;12.82;9.52;;;;;;;;;;5097007;28;20423;-89
2022/01/18 14:53:22;;;;;;;14.95;9.82;;;;;;;;;;5093084;28;20398;-88
2022/01/18 14:55:49;;;;;;;14.40;10.60;;;;;;;;;;5096942;28;20420;-87
2022/01/18 14:58:16;;;;;;;17.75;10.73;;;;;;;;;;5095932;28;20398;-86
2022/01/18 15:00:43;;;;;;;15.48;10.93;;;;;;;;;;5097010;28;20493;-87
2022/01/18 15:03:10;;;;;;;13.55;10.95;;;;;;;;;;5103877;28;20463;-87
2022/01/18 15:05:39;;;;;;;14.88;10.60;;;;;;;;;;5104688;28;20763;-87
2022/01/18 15:08:06;;;;;;;14.88;10.38;;;;;;;;;;5104998;28;20456;-88
2022/01/18 15:10:35;;;;;;;15.93;11.02;;;;;;;;;;5105410;28;20399;-88
2022/01/18 15:13:05;;;;;;;14.73;10.90;;;;;;;;;;5100062;27;20406;-85
2022/01/18 15:15:32;;;;;;;18.13;12.13;;;;;;;;;;5098723;28;20509;-85
2022/01/18 15:17:59;;;;;;;20.25;13.02;;;;;;;;;;5100477;28;20713;-86
2022/01/18 15:20:28;;;;;;;18.00;13.10;;;;;;;;;;5099695;27;20417;-85
2022/01/18 15:22:56;;;;;;;19.38;12.98;;;;;;;;;;5099868;27;20414;-85
2022/01/18 15:25:24;;;;;;;17.63;12.77;;;;;;;;;;5101545;28;20410;-85
2022/01/18 15:27:51;;;;;;;18.67;12.65;;;;;;;;;;5097581;28;20398;-85
2022/01/18 15:30:19;;;;;;;17.55;12.70;;;;;;;;;;5098946;28;20889;-86
2022/01/18 15:32:48;;;;;;;17.75;12.57;;;;;;;;;;5099440;28;20398;-86
2022/01/18 15:35:19;;;;;;;20.67;13.03;;;;;;;;;;5105356;28;20970;-85